createdAt,value
2019-05-05T00:00:14.353Z,98.50
2019-05-05T00:02:47.352Z,98.60
2019-05-05T00:05:21.552Z,98.30
2019-05-05T00:07:51.339Z,98.30
2019-05-05T00:10:25.835Z,98.10
2019-05-05T00:12:59.992Z,98.30
2019-05-05T00:15:47.754Z,98.40
2019-05-05T00:18:18.689Z,98.40
2019-05-05T00:20:48.454Z,98.60
2019-05-05T00:23:18.332Z,98.80
2019-05-05T00:25:48.086Z,98.40
2019-05-05T00:28:17.822Z,98.80
2019-05-05T00:30:47.620Z,99.10
2019-05-05T00:33:17.360Z,99.10
2019-05-05T00:35:47.123Z,98.80
2019-05-05T00:38:16.868Z,98.90
2019-05-05T00:40:46.618Z,98.90
2019-05-05T00:43:16.383Z,98.60
2019-05-05T00:45:47.706Z,98.70
2019-05-05T00:48:24.992Z,98.90
2019-05-05T00:50:55.704Z,99.10
2019-05-05T00:53:25.496Z,99.10
2019-05-05T00:55:55.253Z,99.00
2019-05-05T00:58:25.504Z,99.10
2019-05-05T01:00:59.556Z,99.30
2019-05-05T01:03:29.660Z,99.00
2019-05-05T01:06:06.621Z,99.10
2019-05-05T01:08:36.354Z,99.10
2019-05-05T01:11:06.121Z,99.30
2019-05-05T01:13:35.875Z,99.40
2019-05-05T01:16:05.624Z,99.00
2019-05-05T01:18:35.376Z,98.60
2019-05-05T01:21:05.477Z,98.90
2019-05-05T01:23:35.240Z,99.40
2019-05-05T01:26:05.291Z,99.00
2019-05-05T01:28:35.651Z,98.80
2019-05-05T01:31:07.072Z,98.70
2019-05-05T01:33:41.537Z,99.10
2019-05-05T01:36:11.683Z,99.20
2019-05-05T01:38:52.616Z,98.50
2019-05-05T01:41:34.797Z,98.50
2019-05-05T01:44:05.032Z,98.50
2019-05-05T01:46:35.450Z,98.60
2019-05-05T01:49:05.493Z,98.40
2019-05-05T01:51:35.596Z,98.60
2019-05-05T01:54:06.245Z,98.90
2019-05-05T01:56:36.684Z,98.90
2019-05-05T01:59:06.994Z,98.50
2019-05-05T02:01:36.735Z,99.10
2019-05-05T02:04:06.488Z,98.60
2019-05-05T02:06:36.229Z,98.80
2019-05-05T02:09:07.413Z,98.80
2019-05-05T02:11:39.026Z,98.90
2019-05-05T02:14:08.819Z,99.10
2019-05-05T02:16:38.624Z,99.00
2019-05-05T02:19:08.357Z,99.10
2019-05-05T02:21:38.236Z,99.10
2019-05-05T02:24:07.985Z,99.10
2019-05-05T02:26:37.752Z,99.00
2019-05-05T02:29:15.085Z,99.30
2019-05-05T02:32:05.965Z,99.30
2019-05-05T02:34:35.985Z,99.10
2019-05-05T02:37:06.239Z,99.20
2019-05-05T02:39:39.319Z,99.20
2019-05-05T02:42:07.766Z,99.30
2019-05-05T02:44:38.525Z,99.40
2019-05-05T02:47:15.497Z,99.50
2019-05-05T02:49:45.457Z,99.30
2019-05-05T02:52:16.624Z,99.30
2019-05-05T02:54:46.435Z,99.60
2019-05-05T02:57:16.799Z,99.60
2019-05-05T02:59:57.776Z,99.90
2019-05-05T03:02:29.087Z,99.80
2019-05-05T03:04:59.348Z,99.70
2019-05-05T03:07:29.686Z,99.90
2019-05-05T03:10:03.574Z,99.70
2019-05-05T03:12:35.524Z,99.90
2019-05-05T03:15:06.098Z,99.90
2019-05-05T03:17:36.043Z,99.90
2019-05-05T03:20:07.571Z,99.90
2019-05-05T03:22:38.638Z,99.90
2019-05-05T03:25:08.388Z,99.90
2019-05-05T03:27:38.755Z,99.90
2019-05-05T03:30:09.198Z,99.90
2019-05-05T03:32:39.013Z,99.90
2019-05-05T03:35:08.819Z,99.90
2019-05-05T03:37:38.784Z,99.90
2019-05-05T03:40:10.192Z,99.90
2019-05-05T03:42:45.385Z,99.90
2019-05-05T03:45:16.984Z,99.90
2019-05-05T03:47:47.127Z,99.90
2019-05-05T03:50:16.981Z,99.90
2019-05-05T03:52:47.127Z,99.90
2019-05-05T03:55:16.964Z,99.90
2019-05-05T03:57:46.731Z,99.90
2019-05-05T04:00:23.552Z,99.90
2019-05-05T04:02:54.949Z,99.90
2019-05-05T04:05:26.458Z,99.90
2019-05-05T04:07:56.318Z,99.90
2019-05-05T04:10:26.060Z,99.90
2019-05-05T04:12:57.022Z,99.90
2019-05-05T04:15:26.746Z,99.90
2019-05-05T04:18:01.140Z,99.90
2019-05-05T04:20:33.731Z,99.90
2019-05-05T04:23:03.881Z,99.90
2019-05-05T04:25:34.955Z,99.90
2019-05-05T04:28:04.967Z,99.90
2019-05-05T04:30:53.973Z,99.90
2019-05-05T04:33:24.835Z,99.90
2019-05-05T04:35:54.652Z,99.90
2019-05-05T04:38:24.414Z,99.90
2019-05-05T04:40:54.273Z,99.90
2019-05-05T04:43:24.649Z,99.90
2019-05-05T04:45:54.551Z,99.90
2019-05-05T04:48:26.837Z,99.90
2019-05-05T04:50:58.174Z,99.90
2019-05-05T04:53:34.412Z,99.90
2019-05-05T04:56:04.314Z,99.90
2019-05-05T04:58:34.197Z,99.90
2019-05-05T05:01:04.648Z,99.90
2019-05-05T05:03:36.146Z,99.90
2019-05-05T05:06:07.453Z,99.90
2019-05-05T05:08:37.199Z,99.90
2019-05-05T05:11:06.942Z,99.90
2019-05-05T05:13:36.711Z,99.90
2019-05-05T05:16:06.446Z,99.90
2019-05-05T05:18:36.187Z,99.90
2019-05-05T05:21:05.943Z,99.90
2019-05-05T05:23:35.687Z,99.90
2019-05-05T05:26:06.299Z,99.90
2019-05-05T05:28:36.284Z,99.90
2019-05-05T05:31:06.044Z,99.90
2019-05-05T05:33:35.776Z,99.90
2019-05-05T05:36:05.532Z,99.90
2019-05-05T05:38:35.348Z,99.90
2019-05-05T05:41:06.637Z,99.90
2019-05-05T05:43:40.951Z,99.90
2019-05-05T05:46:15.285Z,99.90
2019-05-05T05:48:58.311Z,99.90
2019-05-05T05:51:28.034Z,99.90
2019-05-05T05:53:57.779Z,99.90
2019-05-05T05:56:27.512Z,99.90
2019-05-05T05:58:57.295Z,99.90
2019-05-05T06:01:27.010Z,99.90
2019-05-05T06:03:56.759Z,99.90
2019-05-05T06:06:26.492Z,99.90
2019-05-05T06:08:56.573Z,99.90
2019-05-05T06:11:27.271Z,99.90
2019-05-05T06:13:56.993Z,99.90
2019-05-05T06:16:26.816Z,99.90
2019-05-05T06:18:56.476Z,99.90
2019-05-05T06:21:26.213Z,99.90
2019-05-05T06:23:56.051Z,99.90
2019-05-05T06:26:25.792Z,99.90
2019-05-05T06:28:55.547Z,99.90
2019-05-05T06:31:25.307Z,99.90
2019-05-05T06:33:55.049Z,99.90
2019-05-05T06:36:24.825Z,99.90
2019-05-05T06:38:54.581Z,99.90
2019-05-05T06:41:31.647Z,99.90
2019-05-05T06:44:18.980Z,99.90
2019-05-05T06:46:59.299Z,99.90
2019-05-05T06:49:31.240Z,99.90
2019-05-05T06:52:00.576Z,99.90
2019-05-05T06:54:30.329Z,99.90
2019-05-05T06:57:00.384Z,99.90
2019-05-05T06:59:30.164Z,99.90
2019-05-05T07:01:59.912Z,99.90
2019-05-05T07:04:29.660Z,99.90
2019-05-05T07:06:59.404Z,99.90
2019-05-05T07:09:29.141Z,99.90
2019-05-05T07:11:58.877Z,99.90
2019-05-05T07:14:28.595Z,99.90
2019-05-05T07:16:58.375Z,99.90
2019-05-05T07:19:28.106Z,99.90
2019-05-05T07:21:57.847Z,99.90
2019-05-05T07:24:29.293Z,99.90
2019-05-05T07:26:59.029Z,99.90
2019-05-05T07:29:28.790Z,99.90
2019-05-05T07:31:58.545Z,99.90
2019-05-05T07:34:29.874Z,99.90
2019-05-05T07:36:59.731Z,99.90
2019-05-05T07:39:29.487Z,99.90
2019-05-05T07:41:59.265Z,99.90
2019-05-05T07:44:29.849Z,99.90
2019-05-05T07:47:00.649Z,99.90
2019-05-05T07:49:30.383Z,99.90
2019-05-05T07:52:00.188Z,99.90
2019-05-05T07:54:29.879Z,99.90
2019-05-05T07:56:59.637Z,99.90
2019-05-05T07:59:29.385Z,99.90
2019-05-05T08:01:59.112Z,99.90
2019-05-05T08:04:28.891Z,99.90
2019-05-05T08:06:58.640Z,99.90
2019-05-05T08:09:28.377Z,99.90
2019-05-05T08:11:58.104Z,99.90
2019-05-05T08:14:27.839Z,99.90
2019-05-05T08:17:04.161Z,99.90
2019-05-05T08:19:35.223Z,99.90
2019-05-05T08:22:05.315Z,99.90
2019-05-05T08:24:54.484Z,99.90
2019-05-05T08:27:46.667Z,99.90
2019-05-05T08:30:30.464Z,99.90
2019-05-05T08:33:00.526Z,99.90
2019-05-05T08:35:30.271Z,99.90
2019-05-05T08:38:00.028Z,99.90
2019-05-05T08:40:29.764Z,99.90
2019-05-05T08:42:59.535Z,99.90
2019-05-05T08:45:29.259Z,99.90
2019-05-05T08:47:59.009Z,99.90
2019-05-05T08:50:28.758Z,99.90
2019-05-05T08:52:58.511Z,99.90
2019-05-05T08:55:28.547Z,99.90
2019-05-05T08:57:58.327Z,99.90
2019-05-05T09:00:28.074Z,99.90
2019-05-05T09:02:57.800Z,99.90
2019-05-05T09:05:27.751Z,99.90
2019-05-05T09:08:50.778Z,99.90
2019-05-05T09:11:34.206Z,99.90
2019-05-05T09:14:06.833Z,99.90
2019-05-05T09:16:36.574Z,99.90
2019-05-05T09:19:07.962Z,99.90
2019-05-05T09:21:37.704Z,99.90
2019-05-05T09:24:24.972Z,99.90
2019-05-05T09:27:14.157Z,99.90
2019-05-05T09:32:43.743Z,99.90
2019-05-05T09:35:15.837Z,99.90
2019-05-05T09:37:45.575Z,99.90
2019-05-05T09:40:18.300Z,99.90
2019-05-05T09:42:48.055Z,99.90
2019-05-05T09:45:19.620Z,99.90
2019-05-05T09:47:49.378Z,99.90
2019-05-05T09:50:19.116Z,99.90
2019-05-05T09:52:49.003Z,99.90
2019-05-05T09:55:18.740Z,99.90
2019-05-05T09:57:48.552Z,99.90
2019-05-05T10:00:18.281Z,99.90
2019-05-05T10:02:48.026Z,99.90
2019-05-05T10:05:18.019Z,99.90
2019-05-05T10:07:47.751Z,99.90
2019-05-05T10:10:18.125Z,99.90
2019-05-05T10:12:47.863Z,99.90
2019-05-05T10:15:18.304Z,99.90
2019-05-05T10:17:48.041Z,99.90
2019-05-05T10:20:17.770Z,99.90
2019-05-05T10:22:48.659Z,99.90
2019-05-05T10:25:29.241Z,99.90
2019-05-05T10:27:59.019Z,99.90
2019-05-05T10:30:28.759Z,99.90
2019-05-05T10:32:58.507Z,99.90
2019-05-05T10:35:28.267Z,99.90
2019-05-05T10:37:58.003Z,99.90
2019-05-05T10:40:35.157Z,99.90
2019-05-05T10:43:05.101Z,99.90
2019-05-05T10:45:35.081Z,99.90
2019-05-05T10:48:04.804Z,99.90
2019-05-05T10:50:34.671Z,99.90
2019-05-05T10:53:04.814Z,99.90
2019-05-05T10:55:34.953Z,99.90
2019-05-05T10:58:04.756Z,99.90
2019-05-05T11:00:49.660Z,99.90
2019-05-05T11:03:19.916Z,99.90
2019-05-05T11:05:49.669Z,99.90
2019-05-05T11:08:19.398Z,99.90
2019-05-05T11:10:49.144Z,99.90
2019-05-05T11:13:18.876Z,99.90
2019-05-05T11:15:49.832Z,99.90
2019-05-05T11:18:19.711Z,99.90
2019-05-05T11:20:49.448Z,99.90
2019-05-05T11:23:19.207Z,99.90
2019-05-05T11:25:48.931Z,99.90
2019-05-05T11:28:19.664Z,99.90
2019-05-05T11:30:50.506Z,99.80
2019-05-05T11:33:38.104Z,99.90
2019-05-05T11:36:09.419Z,98.70
2019-05-05T11:38:41.441Z,99.90
2019-05-05T11:41:10.542Z,98.70
2019-05-05T11:43:53.458Z,99.90
2019-05-05T11:46:24.740Z,99.50
2019-05-05T11:48:54.831Z,99.40
2019-05-05T11:51:25.056Z,99.40
2019-05-05T11:53:54.914Z,99.50
2019-05-05T11:56:24.654Z,99.10
2019-05-05T11:58:54.755Z,99.80
2019-05-05T12:01:24.578Z,99.10
2019-05-05T12:03:54.319Z,99.20
2019-05-05T12:06:24.688Z,99.00
2019-05-05T12:08:54.631Z,98.30
2019-05-05T12:11:24.466Z,98.60
2019-05-05T12:13:54.660Z,99.10
2019-05-05T12:16:31.487Z,98.30
2019-05-05T12:19:03.968Z,98.40
2019-05-05T12:21:33.853Z,97.80
2019-05-05T12:24:05.439Z,97.40
2019-05-05T12:26:48.609Z,97.00
2019-05-05T12:29:18.897Z,97.10
2019-05-05T12:31:49.181Z,97.10
2019-05-05T12:34:18.939Z,96.00
2019-05-05T12:36:48.668Z,95.90
2019-05-05T12:39:18.407Z,96.60
2019-05-05T12:41:48.185Z,95.10
2019-05-05T12:44:19.477Z,96.30
2019-05-05T12:46:50.837Z,96.80
2019-05-05T12:49:22.587Z,96.60
2019-05-05T12:51:53.964Z,96.60
2019-05-05T12:54:24.574Z,96.10
2019-05-05T12:56:54.533Z,95.40
2019-05-05T12:59:26.089Z,95.40
2019-05-05T13:01:56.134Z,95.90
2019-05-05T13:04:25.885Z,94.60
2019-05-05T13:06:55.640Z,93.80
2019-05-05T13:09:25.373Z,93.20
2019-05-05T13:11:55.111Z,95.90
2019-05-05T13:14:25.892Z,96.50
2019-05-05T13:16:56.148Z,94.50
2019-05-05T13:19:30.366Z,92.90
2019-05-05T13:24:54.657Z,93.60
2019-05-05T13:27:28.662Z,93.20
2019-05-05T13:30:10.389Z,92.40
2019-05-05T13:32:40.135Z,92.40
2019-05-05T13:35:10.408Z,93.10
2019-05-05T13:37:40.138Z,91.70
2019-05-05T13:40:10.277Z,92.10
2019-05-05T13:42:40.143Z,92.00
2019-05-05T13:45:18.116Z,91.30
2019-05-05T13:47:47.843Z,92.40
2019-05-05T13:50:28.188Z,92.30
2019-05-05T13:52:57.943Z,92.70
2019-05-05T13:55:27.673Z,91.10
2019-05-05T13:57:57.409Z,90.40
2019-05-05T14:00:27.355Z,90.70
2019-05-05T14:02:57.139Z,91.40
2019-05-05T14:05:26.875Z,90.90
2019-05-05T14:07:56.624Z,91.80
2019-05-05T14:10:26.383Z,90.90
2019-05-05T14:12:57.337Z,90.60
2019-05-05T14:15:27.954Z,90.70
2019-05-05T14:17:57.683Z,90.50
2019-05-05T14:20:27.442Z,87.00
2019-05-05T14:22:57.200Z,88.90
2019-05-05T14:25:31.220Z,90.20
2019-05-05T14:28:00.955Z,87.30
2019-05-05T14:30:50.022Z,88.30
2019-05-05T14:33:21.343Z,87.60
2019-05-05T14:36:04.842Z,89.60
2019-05-05T14:38:39.297Z,88.90
2019-05-05T14:41:09.050Z,88.80
2019-05-05T14:43:38.811Z,90.40
2019-05-05T14:46:08.537Z,87.40
2019-05-05T14:48:38.273Z,89.10
2019-05-05T14:51:08.388Z,86.30
2019-05-05T14:53:38.132Z,84.00
2019-05-05T14:56:07.896Z,85.10
2019-05-05T14:58:37.625Z,82.80
2019-05-05T15:01:07.400Z,84.70
2019-05-05T15:03:37.151Z,84.30
2019-05-05T15:06:08.510Z,82.20
2019-05-05T15:08:43.904Z,84.00
2019-05-05T15:11:23.254Z,83.20
2019-05-05T15:13:54.072Z,85.30
2019-05-05T15:16:24.464Z,82.40
2019-05-05T15:18:54.435Z,84.00
2019-05-05T15:21:25.321Z,85.20
2019-05-05T15:23:55.065Z,83.40
2019-05-05T15:26:24.798Z,83.10
2019-05-05T15:29:00.851Z,83.10
2019-05-05T15:31:25.909Z,82.30
2019-05-05T15:33:55.636Z,83.90
2019-05-05T15:36:25.369Z,82.00
2019-05-05T15:38:55.365Z,83.60
2019-05-05T15:41:25.068Z,86.50
2019-05-05T15:43:55.099Z,85.30
2019-05-05T15:46:24.848Z,82.80
2019-05-05T15:48:54.703Z,80.20
2019-05-05T15:51:25.351Z,81.00
2019-05-05T15:53:55.089Z,83.40
2019-05-05T15:56:24.843Z,79.40
2019-05-05T15:58:54.591Z,80.40
2019-05-05T16:01:24.312Z,84.00
2019-05-05T16:03:54.342Z,84.30
2019-05-05T16:06:24.091Z,81.00
2019-05-05T16:08:56.304Z,81.10
2019-05-05T16:11:26.869Z,83.60
2019-05-05T16:13:56.516Z,83.50
2019-05-05T16:16:34.734Z,82.60
2019-05-05T16:19:09.045Z,83.20
2019-05-05T16:21:40.351Z,83.40
2019-05-05T16:24:14.701Z,82.70
2019-05-05T16:26:44.435Z,81.80
2019-05-05T16:29:14.840Z,83.30
2019-05-05T16:31:44.719Z,83.90
2019-05-05T16:34:15.302Z,82.20
2019-05-05T16:36:46.059Z,84.90
2019-05-05T16:39:16.426Z,84.00
2019-05-05T16:41:46.245Z,85.60
2019-05-05T16:44:16.295Z,84.50
2019-05-05T16:46:46.035Z,85.70
2019-05-05T16:49:15.769Z,85.30
2019-05-05T16:51:47.097Z,86.90
2019-05-05T16:54:18.428Z,84.70
2019-05-05T16:56:48.146Z,86.80
2019-05-05T16:59:17.945Z,87.90
2019-05-05T17:01:47.664Z,87.90
2019-05-05T17:04:17.432Z,89.30
2019-05-05T17:06:50.021Z,87.10
2019-05-05T17:09:21.057Z,89.10
2019-05-05T17:12:10.642Z,86.40
2019-05-05T17:14:44.066Z,87.60
2019-05-05T17:17:15.298Z,87.20
2019-05-05T17:19:46.606Z,86.70
2019-05-05T17:22:18.267Z,88.70
2019-05-05T17:24:48.040Z,88.40
2019-05-05T17:27:17.770Z,88.60
2019-05-05T17:29:47.528Z,89.10
2019-05-05T17:32:17.260Z,88.20
2019-05-05T17:34:50.114Z,87.50
2019-05-05T17:37:24.378Z,87.80
2019-05-05T17:39:56.088Z,90.00
2019-05-05T17:42:45.410Z,89.40
2019-05-05T17:45:18.201Z,90.00
2019-05-05T17:47:58.576Z,90.50
2019-05-05T17:50:29.933Z,90.60
2019-05-05T17:53:10.080Z,90.80
2019-05-05T17:55:41.484Z,92.40
2019-05-05T17:58:11.222Z,93.10
2019-05-05T18:00:47.067Z,92.70
2019-05-05T18:03:18.111Z,93.30
2019-05-05T18:06:06.674Z,92.30
2019-05-05T18:08:38.350Z,92.70
2019-05-05T18:11:09.704Z,92.60
2019-05-05T18:13:44.094Z,92.50
2019-05-05T18:16:15.446Z,92.30
2019-05-05T18:18:46.272Z,91.90
2019-05-05T18:21:16.281Z,91.60
2019-05-05T18:23:46.012Z,92.20
2019-05-05T18:26:15.743Z,91.20
2019-05-05T18:28:47.997Z,90.70
2019-05-05T18:31:16.855Z,90.70
2019-05-05T18:33:46.622Z,90.50
2019-05-05T18:36:16.361Z,89.30
2019-05-05T18:38:46.116Z,90.60
2019-05-05T18:44:44.796Z,90.20
2019-05-05T18:53:34.002Z,87.40
2019-05-05T18:56:03.741Z,87.90
2019-05-05T18:58:34.517Z,87.20
2019-05-05T19:01:24.476Z,88.50
2019-05-05T19:04:01.616Z,89.80
2019-05-05T19:06:38.100Z,86.70
2019-05-05T19:09:18.474Z,87.80
2019-05-05T19:11:49.925Z,88.70
2019-05-05T19:14:19.653Z,88.00
2019-05-05T19:16:49.444Z,88.30
2019-05-05T19:19:20.190Z,88.00
2019-05-05T19:21:51.541Z,89.00
2019-05-05T19:24:35.161Z,90.10
2019-05-05T19:27:14.193Z,89.90
2019-05-05T19:29:46.242Z,90.20
2019-05-05T19:32:17.627Z,90.50
2019-05-05T19:34:47.364Z,91.10
2019-05-05T19:37:17.123Z,90.70
2019-05-05T19:39:46.846Z,91.40
2019-05-05T19:42:16.613Z,91.50
2019-05-05T19:44:46.437Z,91.50
2019-05-05T19:47:17.821Z,94.40
2019-05-05T19:49:49.117Z,93.50
2019-05-05T19:52:18.874Z,93.90
2019-05-05T19:54:49.607Z,94.80
2019-05-05T19:57:19.373Z,92.50
2019-05-05T19:59:49.112Z,91.70
2019-05-05T20:02:19.178Z,91.20
2019-05-05T20:04:48.973Z,88.20
2019-05-05T20:07:18.727Z,86.90
2019-05-05T20:09:48.483Z,87.30
2019-05-05T20:12:18.218Z,86.60
2019-05-05T20:14:47.933Z,84.80
2019-05-05T20:17:19.684Z,88.10
2019-05-05T20:19:49.430Z,87.70
2019-05-05T20:22:19.164Z,88.60
2019-05-05T20:24:49.184Z,87.00
2019-05-05T20:27:18.934Z,82.10
2019-05-05T20:29:48.706Z,82.40
2019-05-05T20:32:20.119Z,82.30
2019-05-05T20:34:54.051Z,80.40
2019-05-05T20:37:37.504Z,81.20
2019-05-05T20:40:08.541Z,81.60
2019-05-05T20:42:38.266Z,84.10
2019-05-05T20:45:09.611Z,82.90
2019-05-05T20:47:39.356Z,84.20
2019-05-05T20:50:09.188Z,85.90
2019-05-05T20:52:38.944Z,81.20
2019-05-05T20:55:08.681Z,85.20
2019-05-05T20:57:38.621Z,83.90
2019-05-05T21:00:10.120Z,84.70
2019-05-05T21:02:43.445Z,83.00
2019-05-05T21:05:14.618Z,87.60
2019-05-05T21:07:44.529Z,88.80
2019-05-05T21:10:14.539Z,86.90
2019-05-05T21:12:45.652Z,86.60
2019-05-05T21:15:15.472Z,85.30
2019-05-05T21:17:45.231Z,87.00
2019-05-05T21:20:14.963Z,83.30
2019-05-05T21:22:46.306Z,84.20
2019-05-05T21:25:24.493Z,84.30
2019-05-05T21:27:54.220Z,84.30
2019-05-05T21:30:23.960Z,86.00
2019-05-05T21:32:54.720Z,85.70
2019-05-05T21:35:25.461Z,85.40
2019-05-05T21:37:55.294Z,85.90
2019-05-05T21:40:25.744Z,87.00
2019-05-05T21:42:55.515Z,85.90
2019-05-05T21:45:25.269Z,83.70
2019-05-05T21:47:55.099Z,84.00
2019-05-05T21:50:26.422Z,85.70
2019-05-05T21:52:57.720Z,87.50
2019-05-05T21:55:40.544Z,88.60
2019-05-05T21:58:22.613Z,89.30
2019-05-05T22:00:54.804Z,89.10
2019-05-05T22:03:38.857Z,88.10
2019-05-05T22:06:08.586Z,90.10
2019-05-05T22:08:38.333Z,89.10
2019-05-05T22:11:08.279Z,89.10
2019-05-05T22:13:38.389Z,87.40
2019-05-05T22:16:08.141Z,89.60
2019-05-05T22:18:37.877Z,90.00
2019-05-05T22:21:15.773Z,90.50
2019-05-05T22:23:47.090Z,88.40
2019-05-05T22:26:16.877Z,88.70
2019-05-05T22:28:46.609Z,88.80
2019-05-05T22:31:16.351Z,87.80
2019-05-05T22:33:46.471Z,88.80
2019-05-05T22:36:16.466Z,88.90
2019-05-05T22:38:46.262Z,88.50
2019-05-05T22:41:15.995Z,88.20
2019-05-05T22:43:46.131Z,88.70
2019-05-05T22:46:16.155Z,86.20
2019-05-05T22:48:45.899Z,87.00
2019-05-05T22:51:15.679Z,86.80
2019-05-05T22:53:45.769Z,86.20
2019-05-05T22:56:15.904Z,86.20
2019-05-05T22:58:45.660Z,85.80
2019-05-05T23:01:15.488Z,85.60
2019-05-05T23:03:46.789Z,87.00
2019-05-05T23:06:24.589Z,86.70
2019-05-05T23:08:54.726Z,87.40
2019-05-05T23:11:24.493Z,86.60
2019-05-05T23:13:55.848Z,86.40
2019-05-05T23:16:29.939Z,88.20
2019-05-05T23:19:01.188Z,84.40
2019-05-05T23:21:34.173Z,85.90
2019-05-05T23:24:17.363Z,86.90
2019-05-05T23:26:49.648Z,86.70
2019-05-05T23:29:19.432Z,88.10
2019-05-05T23:31:49.144Z,87.30
2019-05-05T23:34:19.233Z,86.90
2019-05-05T23:36:48.984Z,87.30
2019-05-05T23:39:18.712Z,87.30
2019-05-05T23:41:48.467Z,85.70
2019-05-05T23:44:18.202Z,86.50
2019-05-05T23:46:47.980Z,86.50
2019-05-05T23:49:17.704Z,87.60
2019-05-05T23:51:47.438Z,88.20
2019-05-05T23:54:17.176Z,87.60
2019-05-05T23:56:46.905Z,88.70
2019-05-05T23:59:16.686Z,87.80
